Alice Paul 2 — FQDT — position and weather

sailwx.info

Track history (hours):
 
Tides and Currents Weather Stations Pressure Air Temp Water Temp Dewpoint Dewpoint Depression Visibility Wind Speed Wind Dir Waves Ship Positions

Alice Paul 2

Last reported at 2017-Nov-25 01:23 UTC. Time now 2017-Nov-25 04:18 UTC.
Position N 47°44' W 003°22'.

Length 13 m.

Type: Fishing. MMSI: 228153900.

Date/timePositionNaut miles runAvg speedWind from/ knotsBaromVisibWave heightAir tempDewpointWater temp
2017-Nov-25 01:23N 47°44' W 003°22'0 0.0
2017-Nov-25 00:59N 47°44' W 003°22'2 4.8
2017-Nov-25 00:30N 47°41' W 003°22'4 7.9
2017-Nov-25 00:00N 47°38' W 003°23'3 7.0
2017-Nov-24 23:30N 47°35' W 003°27'3 5.8
2017-Nov-24 22:58N 47°33' W 003°30'1 0.1
2017-Nov-24 10:29N 47°32' W 003°30'3 7.1
2017-Nov-24 10:00N 47°34' W 003°26'4 7.4
2017-Nov-24 09:30N 47°37' W 003°23'4 7.8
2017-Nov-24 09:00N 47°41' W 003°22'3 6.5
2017-Nov-24 08:30N 47°44' W 003°22'0 0.0
2017-Nov-24 08:00N 47°44' W 003°22'0 0.0
2017-Nov-23 10:55N 47°44' W 003°22'0 0.0
2017-Nov-23 10:28N 47°44' W 003°22'0 0.0
2017-Nov-23 09:58N 47°44' W 003°22'  
2017-Nov-18 00:30N 47°44' W 003°22'0 0.0
2017-Nov-18 00:00N 47°44' W 003°22'2 3.9
2017-Nov-17 23:30N 47°42' W 003°22'4 8.6
2017-Nov-17 23:00N 47°38' W 003°23'4 8.2
2017-Nov-17 22:30N 47°35' W 003°27'6 0.3
2017-Nov-17 04:27N 47°39' W 003°32'2 4.8
2017-Nov-17 04:00N 47°40' W 003°29'2 4.7
2017-Nov-17 03:30N 47°41' W 003°25'3 5.7
2017-Nov-17 03:00N 47°42' W 003°22'1 2.6
2017-Nov-17 02:30N 47°44' W 003°22'0 0.0
2017-Nov-17 02:00N 47°44' W 003°22'2 3.9
2017-Nov-17 01:30N 47°42' W 003°22'4 8.4
2017-Nov-17 01:00N 47°38' W 003°23'4 8.4
2017-Nov-17 00:30N 47°34' W 003°26'3 5.6
2017-Nov-17 00:00N 47°32' W 003°28'2 0.2
2017-Nov-16 12:24N 47°32' W 003°31'0 0.1
2017-Nov-16 07:49N 47°32' W 003°32'1 3.6
2017-Nov-16 07:25N 47°33' W 003°31'4 2.9
2017-Nov-16 06:05N 47°36' W 003°35'4 3.6
2017-Nov-16 05:02N 47°39' W 003°32'1 5.3
2017-Nov-16 04:47N 47°40' W 003°30'1 5.1
2017-Nov-16 04:30N 47°40' W 003°28'3 5.2
2017-Nov-16 04:01N 47°41' W 003°24'3 5.9
2017-Nov-16 03:29N 47°44' W 003°22'0 0.0
2017-Nov-16 02:59N 47°44' W 003°22'0 0.0
2017-Nov-16 02:29N 47°44' W 003°22'2 5.2
2017-Nov-16 02:00N 47°41' W 003°22'4 8.0
2017-Nov-16 01:30N 47°37' W 003°23'4 8.0
2017-Nov-16 00:59N 47°34' W 003°26'3 5.2
2017-Nov-16 00:28N 47°32' W 003°29'3 0.2
2017-Nov-15 09:31N 47°34' W 003°33'0 1.8
2017-Nov-15 09:28N 47°34' W 003°33'2 1.5
2017-Nov-15 08:24N 47°35' W 003°34'2 3.6
2017-Nov-15 07:49N 47°34' W 003°31'1 2.4
2017-Nov-15 07:20N 47°33' W 003°31'6 2.8
2017-Nov-15 05:07N 47°40' W 003°31'1 6.3
2017-Nov-15 05:00N 47°40' W 003°30'3 6.1
2017-Nov-15 04:30N 47°41' W 003°25'3 6.8
2017-Nov-15 04:00N 47°43' W 003°22'0 1.0
2017-Nov-15 03:30N 47°44' W 003°22'0 0.2
2017-Nov-15 03:00N 47°44' W 003°22'0 0.0
2017-Nov-15 02:30N 47°44' W 003°22'2 3.2
2017-Nov-15 02:00N 47°42' W 003°22'4 8.2
2017-Nov-15 01:30N 47°38' W 003°23'  
Track history (hours):
 
Tides and Currents Weather Stations Pressure Air Temp Water Temp Dewpoint Dewpoint Depression Visibility Wind Speed Wind Dir Waves Ship Positions

Alice Paul 2

Last reported at 2017-Nov-25 01:23 UTC. Time now 2017-Nov-25 04:18 UTC.
Position N 47°44' W 003°22'.

Length 13 m.

Type: Fishing. MMSI: 228153900.

Date/timePositionNaut miles runAvg speedWind from/ knotsBaromVisibWave heightAir tempDewpointWater temp
2017-Nov-25 01:23N 47°44' W 003°22'0 0.0
2017-Nov-25 00:59N 47°44' W 003°22'2 4.8
2017-Nov-25 00:30N 47°41' W 003°22'4 7.9
2017-Nov-25 00:00N 47°38' W 003°23'3 7.0
2017-Nov-24 23:30N 47°35' W 003°27'3 5.8
2017-Nov-24 22:58N 47°33' W 003°30'1 0.1
2017-Nov-24 10:29N 47°32' W 003°30'3 7.1
2017-Nov-24 10:00N 47°34' W 003°26'4 7.4
2017-Nov-24 09:30N 47°37' W 003°23'4 7.8
2017-Nov-24 09:00N 47°41' W 003°22'3 6.5
2017-Nov-24 08:30N 47°44' W 003°22'0 0.0
2017-Nov-24 08:00N 47°44' W 003°22'0 0.0
2017-Nov-23 10:55N 47°44' W 003°22'0 0.0
2017-Nov-23 10:28N 47°44' W 003°22'0 0.0
2017-Nov-23 09:58N 47°44' W 003°22'  
2017-Nov-18 00:30N 47°44' W 003°22'0 0.0
2017-Nov-18 00:00N 47°44' W 003°22'2 3.9
2017-Nov-17 23:30N 47°42' W 003°22'4 8.6
2017-Nov-17 23:00N 47°38' W 003°23'4 8.2
2017-Nov-17 22:30N 47°35' W 003°27'6 0.3
2017-Nov-17 04:27N 47°39' W 003°32'2 4.8
2017-Nov-17 04:00N 47°40' W 003°29'2 4.7
2017-Nov-17 03:30N 47°41' W 003°25'3 5.7
2017-Nov-17 03:00N 47°42' W 003°22'1 2.6
2017-Nov-17 02:30N 47°44' W 003°22'0 0.0
2017-Nov-17 02:00N 47°44' W 003°22'2 3.9
2017-Nov-17 01:30N 47°42' W 003°22'4 8.4
2017-Nov-17 01:00N 47°38' W 003°23'4 8.4
2017-Nov-17 00:30N 47°34' W 003°26'3 5.6
2017-Nov-17 00:00N 47°32' W 003°28'2 0.2
2017-Nov-16 12:24N 47°32' W 003°31'0 0.1
2017-Nov-16 07:49N 47°32' W 003°32'1 3.6
2017-Nov-16 07:25N 47°33' W 003°31'4 2.9
2017-Nov-16 06:05N 47°36' W 003°35'4 3.6
2017-Nov-16 05:02N 47°39' W 003°32'1 5.3
2017-Nov-16 04:47N 47°40' W 003°30'1 5.1
2017-Nov-16 04:30N 47°40' W 003°28'3 5.2
2017-Nov-16 04:01N 47°41' W 003°24'3 5.9
2017-Nov-16 03:29N 47°44' W 003°22'0 0.0
2017-Nov-16 02:59N 47°44' W 003°22'0 0.0
2017-Nov-16 02:29N 47°44' W 003°22'2 5.2
2017-Nov-16 02:00N 47°41' W 003°22'4 8.0
2017-Nov-16 01:30N 47°37' W 003°23'4 8.0
2017-Nov-16 00:59N 47°34' W 003°26'3 5.2
2017-Nov-16 00:28N 47°32' W 003°29'3 0.2
2017-Nov-15 09:31N 47°34' W 003°33'0 1.8
2017-Nov-15 09:28N 47°34' W 003°33'2 1.5
2017-Nov-15 08:24N 47°35' W 003°34'2 3.6
2017-Nov-15 07:49N 47°34' W 003°31'1 2.4
2017-Nov-15 07:20N 47°33' W 003°31'6 2.8
2017-Nov-15 05:07N 47°40' W 003°31'1 6.3
2017-Nov-15 05:00N 47°40' W 003°30'3 6.1
2017-Nov-15 04:30N 47°41' W 003°25'3 6.8
2017-Nov-15 04:00N 47°43' W 003°22'0 1.0
2017-Nov-15 03:30N 47°44' W 003°22'0 0.2
2017-Nov-15 03:00N 47°44' W 003°22'0 0.0
2017-Nov-15 02:30N 47°44' W 003°22'2 3.2
2017-Nov-15 02:00N 47°42' W 003°22'4 8.2
2017-Nov-15 01:30N 47°38' W 003°23'  

Dump ship's entire track history